sensor_id;sensor_type;location;lat;lon;timestamp;pressure;altitude;pressure_sealevel;temperature
61390;BMP280;47260;48.274;19.814;2023-04-10T00:01:30;100020.84;;;2.14
61390;BMP280;47260;48.274;19.814;2023-04-10T00:03:04;100008.00;;;2.13
61390;BMP280;47260;48.274;19.814;2023-04-10T00:04:36;100012.13;;;2.14
61390;BMP280;47260;48.274;19.814;2023-04-10T00:06:07;100010.25;;;2.14
61390;BMP280;47260;48.274;19.814;2023-04-10T00:07:39;100007.53;;;2.18
61390;BMP280;47260;48.274;19.814;2023-04-10T00:09:11;100009.00;;;2.19
61390;BMP280;47260;48.274;19.814;2023-04-10T00:10:44;100012.75;;;2.21
61390;BMP280;47260;48.274;19.814;2023-04-10T00:12:15;100007.88;;;2.20
61390;BMP280;47260;48.274;19.814;2023-04-10T00:13:47;100010.09;;;2.21
61390;BMP280;47260;48.274;19.814;2023-04-10T00:15:19;100007.78;;;2.23
61390;BMP280;47260;48.274;19.814;2023-04-10T00:16:50;100003.66;;;2.22
61390;BMP280;47260;48.274;19.814;2023-04-10T00:18:21;100001.88;;;2.16
61390;BMP280;47260;48.274;19.814;2023-04-10T00:19:53;99996.66;;;2.12
61390;BMP280;47260;48.274;19.814;2023-04-10T00:21:25;100002.72;;;2.13
61390;BMP280;47260;48.274;19.814;2023-04-10T00:22:57;99997.00;;;2.14
61390;BMP280;47260;48.274;19.814;2023-04-10T00:24:28;100000.41;;;2.15
61390;BMP280;47260;48.274;19.814;2023-04-10T00:26:02;99997.91;;;2.08
61390;BMP280;47260;48.274;19.814;2023-04-10T00:27:33;100003.69;;;2.03
61390;BMP280;47260;48.274;19.814;2023-04-10T00:29:05;100001.25;;;1.92
61390;BMP280;47260;48.274;19.814;2023-04-10T00:30:37;99997.56;;;1.86
61390;BMP280;47260;48.274;19.814;2023-04-10T00:32:09;100000.31;;;1.82
61390;BMP280;47260;48.274;19.814;2023-04-10T00:33:41;99998.16;;;1.77
61390;BMP280;47260;48.274;19.814;2023-04-10T00:35:12;99998.97;;;1.74
61390;BMP280;47260;48.274;19.814;2023-04-10T00:36:45;99998.97;;;1.74
61390;BMP280;47260;48.274;19.814;2023-04-10T00:38:17;99995.09;;;1.79
61390;BMP280;47260;48.274;19.814;2023-04-10T00:39:47;99989.38;;;1.80
61390;BMP280;47260;48.274;19.814;2023-04-10T00:41:20;99992.38;;;1.82
61390;BMP280;47260;48.274;19.814;2023-04-10T00:42:53;99989.63;;;1.86
61390;BMP280;47260;48.274;19.814;2023-04-10T00:44:25;100000.97;;;1.86
61390;BMP280;47260;48.274;19.814;2023-04-10T00:45:55;99996.41;;;1.87
61390;BMP280;47260;48.274;19.814;2023-04-10T00:47:27;99997.19;;;1.87
61390;BMP280;47260;48.274;19.814;2023-04-10T00:48:59;99998.31;;;1.86
61390;BMP280;47260;48.274;19.814;2023-04-10T00:50:31;99997.56;;;1.86
61390;BMP280;47260;48.274;19.814;2023-04-10T00:52:03;100002.56;;;1.84
61390;BMP280;47260;48.274;19.814;2023-04-10T00:53:34;99993.53;;;1.81
61390;BMP280;47260;48.274;19.814;2023-04-10T00:55:06;99995.44;;;1.81
61390;BMP280;47260;48.274;19.814;2023-04-10T00:56:40;99986.00;;;1.80
61390;BMP280;47260;48.274;19.814;2023-04-10T00:58:12;99989.47;;;1.77
61390;BMP280;47260;48.274;19.814;2023-04-10T00:59:44;99985.31;;;1.76
61390;BMP280;47260;48.274;19.814;2023-04-10T01:01:17;99987.63;;;1.74
61390;BMP280;47260;48.274;19.814;2023-04-10T01:02:49;99984.22;;;1.73
61390;BMP280;47260;48.274;19.814;2023-04-10T01:04:22;99988.78;;;1.73
61390;BMP280;47260;48.274;19.814;2023-04-10T01:06:02;99988.38;;;1.74
61390;BMP280;47260;48.274;19.814;2023-04-10T01:07:47;99990.09;;;1.65
61390;BMP280;47260;48.274;19.814;2023-04-10T01:09:31;99984.94;;;1.58
61390;BMP280;47260;48.274;19.814;2023-04-10T01:11:09;99982.41;;;1.51
61390;BMP280;47260;48.274;19.814;2023-04-10T01:12:52;99983.91;;;1.52
61390;BMP280;47260;48.274;19.814;2023-04-10T01:14:30;99983.47;;;1.53
61390;BMP280;47260;48.274;19.814;2023-04-10T01:16:15;99984.97;;;1.54
61390;BMP280;47260;48.274;19.814;2023-04-10T01:17:53;99975.22;;;1.51
61390;BMP280;47260;48.274;19.814;2023-04-10T01:19:49;99977.94;;;1.48
61390;BMP280;47260;48.274;19.814;2023-04-10T01:21:23;99981.16;;;1.35
61390;BMP280;47260;48.274;19.814;2023-04-10T01:23:19;99975.88;;;1.35
61390;BMP280;47260;48.274;19.814;2023-04-10T01:25:03;99980.94;;;1.30
61390;BMP280;47260;48.274;19.814;2023-04-10T01:26:44;99982.06;;;1.29
61390;BMP280;47260;48.274;19.814;2023-04-10T01:28:55;99980.94;;;1.30
61390;BMP280;47260;48.274;19.814;2023-04-10T01:30:31;99981.25;;;1.32
61390;BMP280;47260;48.274;19.814;2023-04-10T01:32:09;99981.66;;;1.30
61390;BMP280;47260;48.274;19.814;2023-04-10T01:33:45;99979.88;;;1.24
61390;BMP280;47260;48.274;19.814;2023-04-10T01:35:18;99981.13;;;1.19
61390;BMP280;47260;48.274;19.814;2023-04-10T01:36:54;99981.28;;;1.09
61390;BMP280;47260;48.274;19.814;2023-04-10T01:38:28;99979.41;;;1.09
61390;BMP280;47260;48.274;19.814;2023-04-10T01:40:02;99973.47;;;1.02
61390;BMP280;47260;48.274;19.814;2023-04-10T01:41:36;99973.94;;;0.97
61390;BMP280;47260;48.274;19.814;2023-04-10T01:43:10;99970.22;;;0.94
61390;BMP280;47260;48.274;19.814;2023-04-10T01:44:52;99971.81;;;0.88
61390;BMP280;47260;48.274;19.814;2023-04-10T01:46:26;99969.91;;;0.89
61390;BMP280;47260;48.274;19.814;2023-04-10T01:48:01;99968.03;;;0.89
61390;BMP280;47260;48.274;19.814;2023-04-10T01:49:34;99965.75;;;0.88
61390;BMP280;47260;48.274;19.814;2023-04-10T01:51:12;99971.88;;;0.85
61390;BMP280;47260;48.274;19.814;2023-04-10T01:52:46;99970.31;;;0.87
61390;BMP280;47260;48.274;19.814;2023-04-10T01:54:25;99972.69;;;0.82
61390;BMP280;47260;48.274;19.814;2023-04-10T01:55:58;99974.63;;;0.78
61390;BMP280;47260;48.274;19.814;2023-04-10T01:57:34;99972.72;;;0.78
61390;BMP280;47260;48.274;19.814;2023-04-10T01:59:06;99967.69;;;0.87
61390;BMP280;47260;48.274;19.814;2023-04-10T02:00:40;99974.78;;;0.90
61390;BMP280;47260;48.274;19.814;2023-04-10T02:02:12;99973.31;;;0.89
61390;BMP280;47260;48.274;19.814;2023-04-10T02:03:44;99971.06;;;0.88
61390;BMP280;47260;48.274;19.814;2023-04-10T02:05:16;99972.56;;;0.89
61390;BMP280;47260;48.274;19.814;2023-04-10T02:06:56;99965.84;;;0.84
61390;BMP280;47260;48.274;19.814;2023-04-10T02:08:35;99971.13;;;0.84
61390;BMP280;47260;48.274;19.814;2023-04-10T02:10:12;99963.63;;;0.83
61390;BMP280;47260;48.274;19.814;2023-04-10T02:11:50;99965.16;;;0.80
61390;BMP280;47260;48.274;19.814;2023-04-10T02:13:24;99961.00;;;0.79
61390;BMP280;47260;48.274;19.814;2023-04-10T02:14:58;99961.50;;;0.71
61390;BMP280;47260;48.274;19.814;2023-04-10T02:16:34;99964.63;;;0.65
61390;BMP280;47260;48.274;19.814;2023-04-10T02:18:09;99965.47;;;0.59
61390;BMP280;47260;48.274;19.814;2023-04-10T02:19:42;99969.56;;;0.63
61390;BMP280;47260;48.274;19.814;2023-04-10T02:21:17;99965.78;;;0.64
61390;BMP280;47260;48.274;19.814;2023-04-10T02:22:49;99966.13;;;0.66
61390;BMP280;47260;48.274;19.814;2023-04-10T02:24:21;99965.31;;;0.70
61390;BMP280;47260;48.274;19.814;2023-04-10T02:25:52;99963.81;;;0.68
61390;BMP280;47260;48.274;19.814;2023-04-10T02:27:28;99964.56;;;0.69
61390;BMP280;47260;48.274;19.814;2023-04-10T02:28:59;99966.81;;;0.71
61390;BMP280;47260;48.274;19.814;2023-04-10T02:30:31;99967.16;;;0.73
61390;BMP280;47260;48.274;19.814;2023-04-10T02:32:05;99964.44;;;0.76
61390;BMP280;47260;48.274;19.814;2023-04-10T02:33:36;99966.81;;;0.71
61390;BMP280;47260;48.274;19.814;2023-04-10T02:35:08;99964.16;;;0.71
61390;BMP280;47260;48.274;19.814;2023-04-10T02:36:41;99956.22;;;0.71
61390;BMP280;47260;48.274;19.814;2023-04-10T02:38:15;99962.72;;;0.66
61390;BMP280;47260;48.274;19.814;2023-04-10T02:39:47;99973.38;;;0.62
61390;BMP280;47260;48.274;19.814;2023-04-10T02:41:17;99963.94;;;0.61
61390;BMP280;47260;48.274;19.814;2023-04-10T02:42:50;99966.28;;;0.56
61390;BMP280;47260;48.274;19.814;2023-04-10T02:44:21;99973.09;;;0.53
61390;BMP280;47260;48.274;19.814;2023-04-10T02:45:53;99969.38;;;0.51
61390;BMP280;47260;48.274;19.814;2023-04-10T02:47:30;99963.78;;;0.45
61390;BMP280;47260;48.274;19.814;2023-04-10T02:49:02;99967.94;;;0.46
61390;BMP280;47260;48.274;19.814;2023-04-10T02:50:34;99967.97;;;0.43
61390;BMP280;47260;48.274;19.814;2023-04-10T02:52:05;99966.88;;;0.40
61390;BMP280;47260;48.274;19.814;2023-04-10T02:53:37;99967.63;;;0.41
61390;BMP280;47260;48.274;19.814;2023-04-10T02:55:10;99963.56;;;0.36
61390;BMP280;47260;48.274;19.814;2023-04-10T02:56:43;99961.25;;;0.38
61390;BMP280;47260;48.274;19.814;2023-04-10T02:58:13;99968.50;;;0.34
61390;BMP280;47260;48.274;19.814;2023-04-10T02:59:48;99966.59;;;0.35
61390;BMP280;47260;48.274;19.814;2023-04-10T03:01:20;99962.53;;;0.30
61390;BMP280;47260;48.274;19.814;2023-04-10T03:02:54;99968.97;;;0.29
61390;BMP280;47260;48.274;19.814;2023-04-10T03:04:26;99963.59;;;0.33
61390;BMP280;47260;48.274;19.814;2023-04-10T03:05:58;99963.59;;;0.33
61390;BMP280;47260;48.274;19.814;2023-04-10T03:07:34;99960.50;;;0.38
61390;BMP280;47260;48.274;19.814;2023-04-10T03:09:07;99964.25;;;0.40
61390;BMP280;47260;48.274;19.814;2023-04-10T03:10:39;99954.75;;;0.43
61390;BMP280;47260;48.274;19.814;2023-04-10T03:12:14;99955.97;;;0.38
61390;BMP280;47260;48.274;19.814;2023-04-10T03:13:46;99956.03;;;0.35
61390;BMP280;47260;48.274;19.814;2023-04-10T03:15:18;99949.59;;;0.36
61390;BMP280;47260;48.274;19.814;2023-04-10T03:16:50;99960.56;;;0.34
61390;BMP280;47260;48.274;19.814;2023-04-10T03:18:23;99960.16;;;0.36
61390;BMP280;47260;48.274;19.814;2023-04-10T03:19:56;99956.03;;;0.35
61390;BMP280;47260;48.274;19.814;2023-04-10T03:21:28;99961.38;;;0.31
61390;BMP280;47260;48.274;19.814;2023-04-10T03:23:00;99962.13;;;0.32
61390;BMP280;47260;48.274;19.814;2023-04-10T03:24:31;99968.22;;;0.29
61390;BMP280;47260;48.274;19.814;2023-04-10T03:26:03;99961.69;;;0.33
61390;BMP280;47260;48.274;19.814;2023-04-10T03:27:40;99959.81;;;0.34
61390;BMP280;47260;48.274;19.814;2023-04-10T03:29:11;99955.28;;;0.34
61390;BMP280;47260;48.274;19.814;2023-04-10T03:30:49;99969.59;;;0.37
61390;BMP280;47260;48.274;19.814;2023-04-10T03:32:20;99957.13;;;0.37
61390;BMP280;47260;48.274;19.814;2023-04-10T03:33:54;99956.69;;;0.42
61390;BMP280;47260;48.274;19.814;2023-04-10T03:35:25;99958.50;;;0.45
61390;BMP280;47260;48.274;19.814;2023-04-10T03:36:57;99953.59;;;0.47
61390;BMP280;47260;48.274;19.814;2023-04-10T03:38:29;99955.06;;;0.48
61390;BMP280;47260;48.274;19.814;2023-04-10T03:39:59;99950.53;;;0.49
61390;BMP280;47260;48.274;19.814;2023-04-10T03:41:33;99955.41;;;0.50
61390;BMP280;47260;48.274;19.814;2023-04-10T03:43:04;99953.50;;;0.51
61390;BMP280;47260;48.274;19.814;2023-04-10T03:44:38;99953.81;;;0.56
61390;BMP280;47260;48.274;19.814;2023-04-10T03:46:11;99954.28;;;0.51
61390;BMP280;47260;48.274;19.814;2023-04-10T03:47:46;99961.78;;;0.53
61390;BMP280;47260;48.274;19.814;2023-04-10T03:49:21;99955.31;;;0.57
61390;BMP280;47260;48.274;19.814;2023-04-10T03:50:58;99957.13;;;0.60
61390;BMP280;47260;48.274;19.814;2023-04-10T03:52:30;99954.47;;;0.64
61390;BMP280;47260;48.274;19.814;2023-04-10T03:54:01;99954.88;;;0.62
61390;BMP280;47260;48.274;19.814;2023-04-10T03:55:33;99962.38;;;0.64
61390;BMP280;47260;48.274;19.814;2023-04-10T03:57:07;99963.06;;;0.68
61390;BMP280;47260;48.274;19.814;2023-04-10T03:58:39;99955.09;;;0.72
61390;BMP280;47260;48.274;19.814;2023-04-10T04:00:11;99962.59;;;0.73
61390;BMP280;47260;48.274;19.814;2023-04-10T04:01:51;99956.22;;;0.71
61390;BMP280;47260;48.274;19.814;2023-04-10T04:03:23;99956.22;;;0.71
61390;BMP280;47260;48.274;19.814;2023-04-10T04:05:05;99953.97;;;0.73
61390;BMP280;47260;48.274;19.814;2023-04-10T04:06:48;99957.69;;;0.75
61390;BMP280;47260;48.274;19.814;2023-04-10T04:08:40;99958.03;;;0.77
61390;BMP280;47260;48.274;19.814;2023-04-10T04:10:35;99949.22;;;0.84
61390;BMP280;47260;48.274;19.814;2023-04-10T04:12:27;99958.88;;;0.94
61390;BMP280;47260;48.274;19.814;2023-04-10T04:14:06;99955.44;;;0.97
61390;BMP280;47260;48.274;19.814;2023-04-10T04:15:51;99953.94;;;0.96
61390;BMP280;47260;48.274;19.814;2023-04-10T04:17:45;99950.16;;;0.97
61390;BMP280;47260;48.274;19.814;2023-04-10T04:19:39;99956.88;;;1.01
61390;BMP280;47260;48.274;19.814;2023-04-10T04:21:31;99957.16;;;1.07
61390;BMP280;47260;48.274;19.814;2023-04-10T04:23:22;99960.13;;;1.09
61390;BMP280;47260;48.274;19.814;2023-04-10T04:25:31;99961.97;;;1.12
61390;BMP280;47260;48.274;19.814;2023-04-10T04:27:32;99963.81;;;1.15
61390;BMP280;47260;48.274;19.814;2023-04-10T04:29:11;99950.53;;;1.18
61390;BMP280;47260;48.274;19.814;2023-04-10T04:30:43;99952.34;;;1.21
61390;BMP280;47260;48.274;19.814;2023-04-10T04:32:40;99959.00;;;1.29
61390;BMP280;47260;48.274;19.814;2023-04-10T04:34:37;99963.34;;;1.40
61390;BMP280;47260;48.274;19.814;2023-04-10T04:36:28;99967.06;;;1.42
61390;BMP280;47260;48.274;19.814;2023-04-10T04:38:22;99963.16;;;1.50
61390;BMP280;47260;48.274;19.814;2023-04-10T04:40:05;99961.84;;;1.58
61390;BMP280;47260;48.274;19.814;2023-04-10T04:42:03;99966.66;;;1.63
61390;BMP280;47260;48.274;19.814;2023-04-10T04:43:49;99965.69;;;1.73
61390;BMP280;47260;48.274;19.814;2023-04-10T04:45:41;99959.34;;;1.87
61390;BMP280;47260;48.274;19.814;2023-04-10T04:47:31;99960.94;;;2.00
61390;BMP280;47260;48.274;19.814;2023-04-10T04:49:26;99970.69;;;2.23
61390;BMP280;47260;48.274;19.814;2023-04-10T04:51:16;99973.66;;;2.41
61390;BMP280;47260;48.274;19.814;2023-04-10T04:52:55;99979.81;;;2.54
61390;BMP280;47260;48.274;19.814;2023-04-10T04:54:46;99978.31;;;2.53
61390;BMP280;47260;48.274;19.814;2023-04-10T04:56:38;99981.69;;;2.70
61390;BMP280;47260;48.274;19.814;2023-04-10T04:58:25;99983.69;;;2.82
61390;BMP280;47260;48.274;19.814;2023-04-10T05:00:14;99990.56;;;2.80
61390;BMP280;47260;48.274;19.814;2023-04-10T05:02:05;99992.97;;;2.74
61390;BMP280;47260;48.274;19.814;2023-04-10T05:03:57;99984.69;;;2.72
61390;BMP280;47260;48.274;19.814;2023-04-10T05:05:46;99991.13;;;2.71
61390;BMP280;47260;48.274;19.814;2023-04-10T05:07:36;99988.72;;;2.77
61390;BMP280;47260;48.274;19.814;2023-04-10T05:09:17;99984.94;;;2.78
61390;BMP280;47260;48.274;19.814;2023-04-10T05:11:07;99987.59;;;2.78
61390;BMP280;47260;48.274;19.814;2023-04-10T05:12:39;99994.03;;;2.77
61390;BMP280;47260;48.274;19.814;2023-04-10T05:14:31;99990.22;;;2.78
61390;BMP280;47260;48.274;19.814;2023-04-10T05:16:11;99996.63;;;2.80
61390;BMP280;47260;48.274;19.814;2023-04-10T05:18:05;99989.25;;;2.88
61390;BMP280;47260;48.274;19.814;2023-04-10T05:20:00;99998.56;;;2.92
61390;BMP280;47260;48.274;19.814;2023-04-10T05:21:55;99993.03;;;2.87
61390;BMP280;47260;48.274;19.814;2023-04-10T05:23:48;100001.53;;;2.94
61390;BMP280;47260;48.274;19.814;2023-04-10T05:25:39;99993.09;;;2.99
61390;BMP280;47260;48.274;19.814;2023-04-10T05:27:25;99994.59;;;3.00
61390;BMP280;47260;48.274;19.814;2023-04-10T05:29:29;99982.78;;;3.17
61390;BMP280;47260;48.274;19.814;2023-04-10T05:31:12;99983.69;;;3.39
61390;BMP280;47260;48.274;19.814;2023-04-10T05:33:13;99989.69;;;3.69
61390;BMP280;47260;48.274;19.814;2023-04-10T05:35:04;99990.38;;;3.98
61390;BMP280;47260;48.274;19.814;2023-04-10T05:36:46;99994.19;;;4.22
61390;BMP280;47260;48.274;19.814;2023-04-10T05:38:42;100001.16;;;4.41
61390;BMP280;47260;48.274;19.814;2023-04-10T05:40:38;99999.34;;;4.51
61390;BMP280;47260;48.274;19.814;2023-04-10T05:42:30;100007.19;;;5.23
61390;BMP280;47260;48.274;19.814;2023-04-10T05:44:29;100013.28;;;5.76
61390;BMP280;47260;48.274;19.814;2023-04-10T05:46:08;100015.41;;;5.81
61390;BMP280;47260;48.274;19.814;2023-04-10T05:47:59;100018.16;;;5.77
61390;BMP280;47260;48.274;19.814;2023-04-10T05:49:38;100024.03;;;5.63
61390;BMP280;47260;48.274;19.814;2023-04-10T05:51:25;100019.03;;;5.74
61390;BMP280;47260;48.274;19.814;2023-04-10T05:53:26;100011.75;;;5.96
61390;BMP280;47260;48.274;19.814;2023-04-10T05:55:19;100016.09;;;6.12
61390;BMP280;47260;48.274;19.814;2023-04-10T05:56:58;100023.19;;;6.15
61390;BMP280;47260;48.274;19.814;2023-04-10T05:58:56;100020.94;;;5.95
61390;BMP280;47260;48.274;19.814;2023-04-10T06:00:42;100024.03;;;6.52
61390;BMP280;47260;48.274;19.814;2023-04-10T06:02:43;100027.47;;;6.88
61390;BMP280;47260;48.274;19.814;2023-04-10T06:04:24;100033.03;;;7.86
61390;BMP280;47260;48.274;19.814;2023-04-10T06:05:59;100033.25;;;8.54
61390;BMP280;47260;48.274;19.814;2023-04-10T06:07:31;100042.13;;;8.98
61390;BMP280;47260;48.274;19.814;2023-04-10T06:09:03;100034.09;;;8.98
61390;BMP280;47260;48.274;19.814;2023-04-10T06:10:35;100032.25;;;8.89
61390;BMP280;47260;48.274;19.814;2023-04-10T06:12:07;100035.50;;;9.37
61390;BMP280;47260;48.274;19.814;2023-04-10T06:13:39;100040.84;;;9.52
61390;BMP280;47260;48.274;19.814;2023-04-10T06:15:12;100031.88;;;9.55
61390;BMP280;47260;48.274;19.814;2023-04-10T06:16:45;100028.50;;;10.29
61390;BMP280;47260;48.274;19.814;2023-04-10T06:18:18;100026.00;;;10.46
61390;BMP280;47260;48.274;19.814;2023-04-10T06:19:52;100033.03;;;10.63
61390;BMP280;47260;48.274;19.814;2023-04-10T06:21:23;100034.16;;;10.77
61390;BMP280;47260;48.274;19.814;2023-04-10T06:22:57;100029.03;;;11.36
61390;BMP280;47260;48.274;19.814;2023-04-10T06:24:29;100038.28;;;12.14
61390;BMP280;47260;48.274;19.814;2023-04-10T06:26:01;100026.47;;;12.87
61390;BMP280;47260;48.274;19.814;2023-04-10T06:27:34;100026.00;;;12.82
61390;BMP280;47260;48.274;19.814;2023-04-10T06:29:06;100015.94;;;12.89
61390;BMP280;47260;48.274;19.814;2023-04-10T06:30:39;100030.66;;;13.15
61390;BMP280;47260;48.274;19.814;2023-04-10T06:32:11;100028.75;;;13.95
61390;BMP280;47260;48.274;19.814;2023-04-10T06:33:44;100023.94;;;13.71
61390;BMP280;47260;48.274;19.814;2023-04-10T06:35:16;100026.00;;;14.52
61390;BMP280;47260;48.274;19.814;2023-04-10T06:36:48;100026.81;;;15.31
61390;BMP280;47260;48.274;19.814;2023-04-10T06:38:20;100020.91;;;15.75
61390;BMP280;47260;48.274;19.814;2023-04-10T06:40:00;100026.66;;;15.90
61390;BMP280;47260;48.274;19.814;2023-04-10T06:41:32;100028.75;;;15.78
61390;BMP280;47260;48.274;19.814;2023-04-10T06:43:18;100025.34;;;16.28
61390;BMP280;47260;48.274;19.814;2023-04-10T06:44:50;100027.88;;;17.15
61390;BMP280;47260;48.274;19.814;2023-04-10T06:46:23;100024.75;;;17.11
61390;BMP280;47260;48.274;19.814;2023-04-10T06:47:55;100028.84;;;17.05
61390;BMP280;47260;48.274;19.814;2023-04-10T06:49:26;100014.03;;;16.61
61390;BMP280;47260;48.274;19.814;2023-04-10T06:50:58;100020.75;;;15.86
61390;BMP280;47260;48.274;19.814;2023-04-10T06:52:31;100015.56;;;15.21
61390;BMP280;47260;48.274;19.814;2023-04-10T06:54:02;100016.00;;;15.31
61390;BMP280;47260;48.274;19.814;2023-04-10T06:55:34;100023.91;;;15.71
61390;BMP280;47260;48.274;19.814;2023-04-10T06:57:06;100014.38;;;16.39
61390;BMP280;47260;48.274;19.814;2023-04-10T06:58:38;100021.41;;;16.92
61390;BMP280;47260;48.274;19.814;2023-04-10T07:00:11;100014.50;;;16.91
61390;BMP280;47260;48.274;19.814;2023-04-10T07:01:44;100017.34;;;16.99
61390;BMP280;47260;48.274;19.814;2023-04-10T07:03:16;100020.59;;;16.66
61390;BMP280;47260;48.274;19.814;2023-04-10T07:04:47;100020.53;;;16.71
61390;BMP280;47260;48.274;19.814;2023-04-10T07:06:19;100021.38;;;16.48
61390;BMP280;47260;48.274;19.814;2023-04-10T07:07:51;100026.28;;;16.94
61390;BMP280;47260;48.274;19.814;2023-04-10T07:09:24;100019.47;;;17.32
61390;BMP280;47260;48.274;19.814;2023-04-10T07:10:56;100013.25;;;17.05
61390;BMP280;47260;48.274;19.814;2023-04-10T07:12:28;100028.97;;;16.81
61390;BMP280;47260;48.274;19.814;2023-04-10T07:14:00;100013.19;;;15.84
61390;BMP280;47260;48.274;19.814;2023-04-10T07:15:32;100017.00;;;15.70
61390;BMP280;47260;48.274;19.814;2023-04-10T07:17:05;100025.22;;;15.83
61390;BMP280;47260;48.274;19.814;2023-04-10T07:18:36;100021.13;;;15.77
61390;BMP280;47260;48.274;19.814;2023-04-10T07:20:11;100026.97;;;15.81
61390;BMP280;47260;48.274;19.814;2023-04-10T07:21:42;100017.06;;;15.22
61390;BMP280;47260;48.274;19.814;2023-04-10T07:23:14;100020.47;;;14.98
61390;BMP280;47260;48.274;19.814;2023-04-10T07:24:46;100020.47;;;14.98
61390;BMP280;47260;48.274;19.814;2023-04-10T07:26:17;100022.22;;;14.96
61390;BMP280;47260;48.274;19.814;2023-04-10T07:27:49;100013.63;;;14.92
61390;BMP280;47260;48.274;19.814;2023-04-10T07:29:21;100017.75;;;14.69
61390;BMP280;47260;48.274;19.814;2023-04-10T07:30:52;100022.44;;;14.68
61390;BMP280;47260;48.274;19.814;2023-04-10T07:32:25;100024.84;;;15.07
61390;BMP280;47260;48.274;19.814;2023-04-10T07:33:57;100021.41;;;14.77
61390;BMP280;47260;48.274;19.814;2023-04-10T07:35:29;100016.44;;;14.81
61390;BMP280;47260;48.274;19.814;2023-04-10T07:37:00;100016.91;;;14.85
61390;BMP280;47260;48.274;19.814;2023-04-10T07:38:32;100013.09;;;14.99
61390;BMP280;47260;48.274;19.814;2023-04-10T07:40:05;100007.47;;;14.97
61390;BMP280;47260;48.274;19.814;2023-04-10T07:41:37;100016.59;;;15.42
61390;BMP280;47260;48.274;19.814;2023-04-10T07:43:08;100016.63;;;16.22
61390;BMP280;47260;48.274;19.814;2023-04-10T07:44:40;100022.97;;;16.56
61390;BMP280;47260;48.274;19.814;2023-04-10T07:46:12;100015.88;;;17.24
61390;BMP280;47260;48.274;19.814;2023-04-10T07:47:45;100009.50;;;17.47
61390;BMP280;47260;48.274;19.814;2023-04-10T07:49:17;100015.69;;;17.22
61390;BMP280;47260;48.274;19.814;2023-04-10T07:50:48;100009.31;;;17.32
61390;BMP280;47260;48.274;19.814;2023-04-10T07:52:20;100017.13;;;16.84
61390;BMP280;47260;48.274;19.814;2023-04-10T07:53:52;100018.22;;;16.44
61390;BMP280;47260;48.274;19.814;2023-04-10T07:55:23;100014.66;;;16.36
61390;BMP280;47260;48.274;19.814;2023-04-10T07:56:55;100006.22;;;16.07
61390;BMP280;47260;48.274;19.814;2023-04-10T07:58:27;100008.41;;;15.90
61390;BMP280;47260;48.274;19.814;2023-04-10T07:59:58;100005.91;;;15.74
61390;BMP280;47260;48.274;19.814;2023-04-10T08:01:31;100006.69;;;15.26
61390;BMP280;47260;48.274;19.814;2023-04-10T08:03:05;100004.22;;;14.69
61390;BMP280;47260;48.274;19.814;2023-04-10T08:04:37;100004.84;;;14.16
61390;BMP280;47260;48.274;19.814;2023-04-10T08:06:09;100006.84;;;13.41
61390;BMP280;47260;48.274;19.814;2023-04-10T08:07:41;100004.44;;;12.82
61390;BMP280;47260;48.274;19.814;2023-04-10T08:09:13;99999.97;;;12.52
61390;BMP280;47260;48.274;19.814;2023-04-10T08:10:45;100003.84;;;12.29
61390;BMP280;47260;48.274;19.814;2023-04-10T08:12:16;100012.59;;;12.13
61390;BMP280;47260;48.274;19.814;2023-04-10T08:13:48;100006.38;;;11.90
61390;BMP280;47260;48.274;19.814;2023-04-10T08:15:21;100003.03;;;11.58
61390;BMP280;47260;48.274;19.814;2023-04-10T08:16:52;100003.00;;;11.53
61390;BMP280;47260;48.274;19.814;2023-04-10T08:18:25;100015.28;;;11.28
61390;BMP280;47260;48.274;19.814;2023-04-10T08:19:57;100015.44;;;11.14
61390;BMP280;47260;48.274;19.814;2023-04-10T08:21:29;100013.13;;;11.01
61390;BMP280;47260;48.274;19.814;2023-04-10T08:23:02;100012.09;;;10.93
61390;BMP280;47260;48.274;19.814;2023-04-10T08:24:34;100012.53;;;10.92
61390;BMP280;47260;48.274;19.814;2023-04-10T08:26:06;100012.41;;;10.75
61390;BMP280;47260;48.274;19.814;2023-04-10T08:27:37;100003.78;;;10.65
61390;BMP280;47260;48.274;19.814;2023-04-10T08:29:09;100018.41;;;10.64
61390;BMP280;47260;48.274;19.814;2023-04-10T08:30:41;100012.28;;;10.44
61390;BMP280;47260;48.274;19.814;2023-04-10T08:32:13;100010.13;;;10.42
61390;BMP280;47260;48.274;19.814;2023-04-10T08:33:46;100013.47;;;10.37
61390;BMP280;47260;48.274;19.814;2023-04-10T08:35:18;100014.47;;;10.40
61390;BMP280;47260;48.274;19.814;2023-04-10T08:36:50;100019.03;;;10.34
61390;BMP280;47260;48.274;19.814;2023-04-10T08:38:21;100014.28;;;10.23
61390;BMP280;47260;48.274;19.814;2023-04-10T08:39:54;100015.63;;;10.13
61390;BMP280;47260;48.274;19.814;2023-04-10T08:41:26;100009.50;;;10.13
61390;BMP280;47260;48.274;19.814;2023-04-10T08:42:57;100013.66;;;10.14
61390;BMP280;47260;48.274;19.814;2023-04-10T08:44:29;100008.97;;;10.09
61390;BMP280;47260;48.274;19.814;2023-04-10T08:46:01;100005.34;;;10.12
61390;BMP280;47260;48.274;19.814;2023-04-10T08:47:35;100006.69;;;10.02
61390;BMP280;47260;48.274;19.814;2023-04-10T08:49:10;99995.28;;;10.07
61390;BMP280;47260;48.274;19.814;2023-04-10T08:50:46;99988.50;;;10.11
61390;BMP280;47260;48.274;19.814;2023-04-10T08:52:20;99996.19;;;10.18
61390;BMP280;47260;48.274;19.814;2023-04-10T08:53:56;100004.16;;;10.13
61390;BMP280;47260;48.274;19.814;2023-04-10T08:55:28;100003.50;;;10.43
61390;BMP280;47260;48.274;19.814;2023-04-10T08:57:00;100005.13;;;10.55
61390;BMP280;47260;48.274;19.814;2023-04-10T08:58:32;100004.81;;;10.73
61390;BMP280;47260;48.274;19.814;2023-04-10T09:00:06;100005.09;;;10.75
61390;BMP280;47260;48.274;19.814;2023-04-10T09:01:38;99994.38;;;10.75
61390;BMP280;47260;48.274;19.814;2023-04-10T09:03:10;99998.38;;;10.91
61390;BMP280;47260;48.274;19.814;2023-04-10T09:04:47;99990.91;;;11.01
61390;BMP280;47260;48.274;19.814;2023-04-10T09:06:20;99985.88;;;11.14
61390;BMP280;47260;48.274;19.814;2023-04-10T09:07:51;99988.41;;;11.28
61390;BMP280;47260;48.274;19.814;2023-04-10T09:09:23;99983.16;;;11.45
61390;BMP280;47260;48.274;19.814;2023-04-10T09:10:55;99986.94;;;11.64